sensor_id;sensor_type;location;lat;lon;timestamp;P1;durP1;ratioP1;P2;durP2;ratioP2
32810;SDS011;65470;47.324;8.548;2023-03-03T00:02:01;99.63;;;51.55;;
32810;SDS011;65470;47.324;8.548;2023-03-03T00:04:27;98.63;;;53.08;;
32810;SDS011;65470;47.324;8.548;2023-03-03T00:06:53;98.05;;;50.08;;
32810;SDS011;65470;47.324;8.548;2023-03-03T00:09:18;84.80;;;49.20;;
32810;SDS011;65470;47.324;8.548;2023-03-03T00:11:44;96.68;;;49.95;;
32810;SDS011;65470;47.324;8.548;2023-03-03T00:14:21;91.60;;;51.88;;
32810;SDS011;65470;47.324;8.548;2023-03-03T00:16:52;91.63;;;49.72;;
32810;SDS011;65470;47.324;8.548;2023-03-03T00:19:19;91.80;;;49.70;;
32810;SDS011;65470;47.324;8.548;2023-03-03T00:21:46;85.97;;;48.00;;
32810;SDS011;65470;47.324;8.548;2023-03-03T00:26:39;89.97;;;49.33;;
32810;SDS011;65470;47.324;8.548;2023-03-03T00:34:46;83.30;;;47.67;;
32810;SDS011;65470;47.324;8.548;2023-03-03T00:39:53;94.97;;;48.38;;
32810;SDS011;65470;47.324;8.548;2023-03-03T00:42:26;82.85;;;46.97;;
32810;SDS011;65470;47.324;8.548;2023-03-03T00:44:55;86.32;;;47.70;;
32810;SDS011;65470;47.324;8.548;2023-03-03T00:47:28;88.05;;;49.90;;
32810;SDS011;65470;47.324;8.548;2023-03-03T00:52:34;81.78;;;47.75;;
32810;SDS011;65470;47.324;8.548;2023-03-03T00:55:02;78.68;;;46.35;;
32810;SDS011;65470;47.324;8.548;2023-03-03T00:57:28;83.35;;;47.42;;
32810;SDS011;65470;47.324;8.548;2023-03-03T00:59:54;84.53;;;48.58;;
32810;SDS011;65470;47.324;8.548;2023-03-03T01:02:19;85.15;;;47.15;;
32810;SDS011;65470;47.324;8.548;2023-03-03T01:04:47;81.43;;;46.58;;
32810;SDS011;65470;47.324;8.548;2023-03-03T01:07:15;82.53;;;47.15;;
32810;SDS011;65470;47.324;8.548;2023-03-03T01:09:41;83.93;;;47.38;;
32810;SDS011;65470;47.324;8.548;2023-03-03T01:12:07;84.35;;;46.85;;
32810;SDS011;65470;47.324;8.548;2023-03-03T01:14:33;80.47;;;45.90;;
32810;SDS011;65470;47.324;8.548;2023-03-03T01:16:59;80.70;;;47.67;;
32810;SDS011;65470;47.324;8.548;2023-03-03T01:19:24;85.60;;;48.17;;
32810;SDS011;65470;47.324;8.548;2023-03-03T01:21:50;82.88;;;48.38;;
32810;SDS011;65470;47.324;8.548;2023-03-03T01:24:16;78.32;;;48.00;;
32810;SDS011;65470;47.324;8.548;2023-03-03T01:26:41;87.35;;;48.97;;
32810;SDS011;65470;47.324;8.548;2023-03-03T01:29:07;83.63;;;47.83;;
32810;SDS011;65470;47.324;8.548;2023-03-03T01:31:33;79.65;;;46.33;;
32810;SDS011;65470;47.324;8.548;2023-03-03T01:33:59;80.20;;;47.53;;
32810;SDS011;65470;47.324;8.548;2023-03-03T01:36:26;85.57;;;49.05;;
32810;SDS011;65470;47.324;8.548;2023-03-03T01:38:52;79.47;;;47.70;;
32810;SDS011;65470;47.324;8.548;2023-03-03T01:41:18;87.55;;;49.50;;
32810;SDS011;65470;47.324;8.548;2023-03-03T01:43:45;79.35;;;47.75;;
32810;SDS011;65470;47.324;8.548;2023-03-03T01:49:01;84.88;;;48.90;;
32810;SDS011;65470;47.324;8.548;2023-03-03T01:51:33;84.72;;;48.40;;
32810;SDS011;65470;47.324;8.548;2023-03-03T01:54:03;78.97;;;47.75;;
32810;SDS011;65470;47.324;8.548;2023-03-03T01:56:33;83.05;;;48.67;;
32810;SDS011;65470;47.324;8.548;2023-03-03T01:59:03;86.13;;;50.80;;
32810;SDS011;65470;47.324;8.548;2023-03-03T02:01:34;79.53;;;48.03;;
32810;SDS011;65470;47.324;8.548;2023-03-03T02:04:00;82.43;;;50.25;;
32810;SDS011;65470;47.324;8.548;2023-03-03T02:06:27;81.47;;;48.88;;
32810;SDS011;65470;47.324;8.548;2023-03-03T02:09:02;84.80;;;47.15;;
32810;SDS011;65470;47.324;8.548;2023-03-03T02:11:29;83.93;;;47.63;;
32810;SDS011;65470;47.324;8.548;2023-03-03T02:13:57;81.97;;;47.60;;
32810;SDS011;65470;47.324;8.548;2023-03-03T02:16:22;79.13;;;48.70;;
32810;SDS011;65470;47.324;8.548;2023-03-03T02:18:48;87.70;;;51.50;;
32810;SDS011;65470;47.324;8.548;2023-03-03T02:21:15;82.93;;;49.60;;
32810;SDS011;65470;47.324;8.548;2023-03-03T02:23:47;87.75;;;51.75;;
32810;SDS011;65470;47.324;8.548;2023-03-03T02:26:39;84.53;;;49.75;;
32810;SDS011;65470;47.324;8.548;2023-03-03T02:29:06;86.55;;;49.72;;
32810;SDS011;65470;47.324;8.548;2023-03-03T02:31:33;84.85;;;47.75;;
32810;SDS011;65470;47.324;8.548;2023-03-03T02:33:58;83.70;;;48.63;;
32810;SDS011;65470;47.324;8.548;2023-03-03T02:36:28;77.85;;;47.30;;
32810;SDS011;65470;47.324;8.548;2023-03-03T02:41:57;82.25;;;48.05;;
32810;SDS011;65470;47.324;8.548;2023-03-03T02:44:28;87.95;;;49.33;;
32810;SDS011;65470;47.324;8.548;2023-03-03T02:46:55;79.60;;;46.83;;
32810;SDS011;65470;47.324;8.548;2023-03-03T02:49:23;82.15;;;45.47;;
32810;SDS011;65470;47.324;8.548;2023-03-03T02:51:53;81.05;;;47.38;;
32810;SDS011;65470;47.324;8.548;2023-03-03T02:54:20;78.65;;;47.95;;
32810;SDS011;65470;47.324;8.548;2023-03-03T02:56:48;89.45;;;49.55;;
32810;SDS011;65470;47.324;8.548;2023-03-03T02:59:13;84.43;;;46.05;;
32810;SDS011;65470;47.324;8.548;2023-03-03T03:05:02;77.60;;;47.15;;
32810;SDS011;65470;47.324;8.548;2023-03-03T03:07:27;86.65;;;49.05;;
32810;SDS011;65470;47.324;8.548;2023-03-03T03:09:53;78.38;;;47.35;;
32810;SDS011;65470;47.324;8.548;2023-03-03T03:12:19;84.28;;;49.33;;
32810;SDS011;65470;47.324;8.548;2023-03-03T03:14:45;87.28;;;49.35;;
32810;SDS011;65470;47.324;8.548;2023-03-03T03:17:11;86.05;;;48.70;;
32810;SDS011;65470;47.324;8.548;2023-03-03T03:19:37;82.50;;;49.80;;
32810;SDS011;65470;47.324;8.548;2023-03-03T03:22:02;81.82;;;47.60;;
32810;SDS011;65470;47.324;8.548;2023-03-03T03:24:28;79.95;;;45.95;;
32810;SDS011;65470;47.324;8.548;2023-03-03T03:26:54;84.75;;;48.53;;
32810;SDS011;65470;47.324;8.548;2023-03-03T03:29:20;78.97;;;46.97;;
32810;SDS011;65470;47.324;8.548;2023-03-03T03:31:45;79.22;;;46.80;;
32810;SDS011;65470;47.324;8.548;2023-03-03T03:34:11;89.85;;;49.60;;
32810;SDS011;65470;47.324;8.548;2023-03-03T03:36:37;78.38;;;48.20;;
32810;SDS011;65470;47.324;8.548;2023-03-03T03:39:03;78.57;;;47.00;;
32810;SDS011;65470;47.324;8.548;2023-03-03T03:41:30;79.47;;;45.10;;
32810;SDS011;65470;47.324;8.548;2023-03-03T03:43:56;82.97;;;46.17;;
32810;SDS011;65470;47.324;8.548;2023-03-03T03:46:22;80.53;;;47.90;;
32810;SDS011;65470;47.324;8.548;2023-03-03T03:48:47;83.30;;;48.00;;
32810;SDS011;65470;47.324;8.548;2023-03-03T03:51:13;83.60;;;49.30;;
32810;SDS011;65470;47.324;8.548;2023-03-03T03:53:38;78.22;;;47.53;;
32810;SDS011;65470;47.324;8.548;2023-03-03T03:56:04;80.28;;;47.72;;
32810;SDS011;65470;47.324;8.548;2023-03-03T03:58:30;74.15;;;46.75;;
32810;SDS011;65470;47.324;8.548;2023-03-03T04:01:00;78.47;;;46.65;;
32810;SDS011;65470;47.324;8.548;2023-03-03T04:03:27;80.53;;;46.70;;
32810;SDS011;65470;47.324;8.548;2023-03-03T04:05:53;75.05;;;45.50;;
32810;SDS011;65470;47.324;8.548;2023-03-03T04:08:19;82.47;;;47.03;;
32810;SDS011;65470;47.324;8.548;2023-03-03T04:10:45;81.80;;;45.70;;
32810;SDS011;65470;47.324;8.548;2023-03-03T04:13:10;78.97;;;46.25;;
32810;SDS011;65470;47.324;8.548;2023-03-03T04:15:36;80.18;;;46.42;;
32810;SDS011;65470;47.324;8.548;2023-03-03T04:18:02;81.00;;;47.78;;
32810;SDS011;65470;47.324;8.548;2023-03-03T04:20:28;71.53;;;45.92;;
32810;SDS011;65470;47.324;8.548;2023-03-03T04:22:54;72.18;;;44.85;;
32810;SDS011;65470;47.324;8.548;2023-03-03T04:25:20;72.63;;;45.08;;
32810;SDS011;65470;47.324;8.548;2023-03-03T04:27:46;77.63;;;46.38;;
32810;SDS011;65470;47.324;8.548;2023-03-03T04:30:12;81.45;;;47.17;;
32810;SDS011;65470;47.324;8.548;2023-03-03T04:32:39;79.88;;;46.88;;
32810;SDS011;65470;47.324;8.548;2023-03-03T04:35:05;78.05;;;48.13;;
32810;SDS011;65470;47.324;8.548;2023-03-03T04:37:31;81.10;;;49.13;;
32810;SDS011;65470;47.324;8.548;2023-03-03T04:39:57;77.10;;;45.95;;
32810;SDS011;65470;47.324;8.548;2023-03-03T04:42:22;86.82;;;49.13;;
32810;SDS011;65470;47.324;8.548;2023-03-03T04:44:48;82.30;;;48.80;;
32810;SDS011;65470;47.324;8.548;2023-03-03T04:47:14;80.97;;;49.17;;
32810;SDS011;65470;47.324;8.548;2023-03-03T04:49:39;79.30;;;48.50;;
32810;SDS011;65470;47.324;8.548;2023-03-03T04:52:05;74.13;;;47.50;;
32810;SDS011;65470;47.324;8.548;2023-03-03T04:54:31;81.35;;;47.53;;
32810;SDS011;65470;47.324;8.548;2023-03-03T04:56:56;80.30;;;49.58;;
32810;SDS011;65470;47.324;8.548;2023-03-03T04:59:22;84.15;;;49.45;;
32810;SDS011;65470;47.324;8.548;2023-03-03T05:01:48;88.38;;;52.03;;
32810;SDS011;65470;47.324;8.548;2023-03-03T05:04:15;81.38;;;47.25;;
32810;SDS011;65470;47.324;8.548;2023-03-03T05:06:40;80.10;;;48.80;;
32810;SDS011;65470;47.324;8.548;2023-03-03T05:09:06;86.43;;;50.53;;
32810;SDS011;65470;47.324;8.548;2023-03-03T05:11:32;79.15;;;47.63;;
32810;SDS011;65470;47.324;8.548;2023-03-03T05:13:57;85.82;;;49.05;;
32810;SDS011;65470;47.324;8.548;2023-03-03T05:16:23;88.28;;;47.72;;
32810;SDS011;65470;47.324;8.548;2023-03-03T05:18:49;78.75;;;48.05;;
32810;SDS011;65470;47.324;8.548;2023-03-03T05:21:14;76.72;;;47.15;;
32810;SDS011;65470;47.324;8.548;2023-03-03T05:23:40;75.38;;;46.53;;
32810;SDS011;65470;47.324;8.548;2023-03-03T05:26:05;78.45;;;47.58;;
32810;SDS011;65470;47.324;8.548;2023-03-03T05:28:31;81.85;;;47.60;;
32810;SDS011;65470;47.324;8.548;2023-03-03T05:30:57;78.43;;;47.80;;
32810;SDS011;65470;47.324;8.548;2023-03-03T05:33:23;82.63;;;48.55;;
32810;SDS011;65470;47.324;8.548;2023-03-03T05:35:52;87.15;;;49.35;;
32810;SDS011;65470;47.324;8.548;2023-03-03T05:38:19;78.25;;;47.70;;
32810;SDS011;65470;47.324;8.548;2023-03-03T05:40:45;81.90;;;49.15;;
32810;SDS011;65470;47.324;8.548;2023-03-03T05:43:11;83.68;;;49.70;;
32810;SDS011;65470;47.324;8.548;2023-03-03T05:45:37;82.50;;;48.33;;
32810;SDS011;65470;47.324;8.548;2023-03-03T05:48:02;79.47;;;48.97;;
32810;SDS011;65470;47.324;8.548;2023-03-03T05:50:28;86.00;;;50.05;;
32810;SDS011;65470;47.324;8.548;2023-03-03T05:52:54;82.63;;;50.78;;
32810;SDS011;65470;47.324;8.548;2023-03-03T05:55:20;86.30;;;52.67;;
32810;SDS011;65470;47.324;8.548;2023-03-03T05:57:45;84.38;;;49.05;;
32810;SDS011;65470;47.324;8.548;2023-03-03T06:00:11;81.15;;;49.00;;
32810;SDS011;65470;47.324;8.548;2023-03-03T06:02:38;84.50;;;51.05;;
32810;SDS011;65470;47.324;8.548;2023-03-03T06:05:04;84.80;;;49.58;;
32810;SDS011;65470;47.324;8.548;2023-03-03T06:07:30;88.20;;;51.70;;
32810;SDS011;65470;47.324;8.548;2023-03-03T06:09:56;87.63;;;51.60;;
32810;SDS011;65470;47.324;8.548;2023-03-03T06:12:21;89.60;;;52.33;;
32810;SDS011;65470;47.324;8.548;2023-03-03T06:14:47;81.07;;;48.80;;
32810;SDS011;65470;47.324;8.548;2023-03-03T06:17:12;87.13;;;50.47;;
32810;SDS011;65470;47.324;8.548;2023-03-03T06:19:38;91.47;;;52.53;;
32810;SDS011;65470;47.324;8.548;2023-03-03T06:22:05;88.28;;;50.67;;
32810;SDS011;65470;47.324;8.548;2023-03-03T06:24:31;87.57;;;50.28;;
32810;SDS011;65470;47.324;8.548;2023-03-03T06:26:57;82.97;;;50.92;;
32810;SDS011;65470;47.324;8.548;2023-03-03T06:29:23;85.32;;;50.85;;
32810;SDS011;65470;47.324;8.548;2023-03-03T06:31:49;92.88;;;52.75;;
32810;SDS011;65470;47.324;8.548;2023-03-03T06:34:15;85.68;;;52.08;;
32810;SDS011;65470;47.324;8.548;2023-03-03T06:36:41;82.00;;;50.28;;
32810;SDS011;65470;47.324;8.548;2023-03-03T06:39:06;86.25;;;50.78;;
32810;SDS011;65470;47.324;8.548;2023-03-03T06:41:32;86.43;;;51.58;;
32810;SDS011;65470;47.324;8.548;2023-03-03T06:43:58;86.20;;;49.92;;
32810;SDS011;65470;47.324;8.548;2023-03-03T06:46:24;87.80;;;52.03;;
32810;SDS011;65470;47.324;8.548;2023-03-03T06:48:50;94.57;;;54.55;;
32810;SDS011;65470;47.324;8.548;2023-03-03T06:51:23;89.07;;;50.97;;
32810;SDS011;65470;47.324;8.548;2023-03-03T06:53:55;85.25;;;51.03;;
32810;SDS011;65470;47.324;8.548;2023-03-03T06:56:25;88.95;;;52.33;;
32810;SDS011;65470;47.324;8.548;2023-03-03T06:58:58;91.90;;;51.85;;
32810;SDS011;65470;47.324;8.548;2023-03-03T07:01:27;88.68;;;50.42;;
32810;SDS011;65470;47.324;8.548;2023-03-03T07:04:03;90.55;;;52.03;;
32810;SDS011;65470;47.324;8.548;2023-03-03T07:06:39;92.28;;;54.75;;
32810;SDS011;65470;47.324;8.548;2023-03-03T07:09:08;87.13;;;53.28;;
32810;SDS011;65470;47.324;8.548;2023-03-03T07:11:46;89.88;;;52.03;;
32810;SDS011;65470;47.324;8.548;2023-03-03T07:14:13;86.32;;;51.65;;
32810;SDS011;65470;47.324;8.548;2023-03-03T07:16:42;96.45;;;51.30;;
32810;SDS011;65470;47.324;8.548;2023-03-03T07:19:18;79.95;;;47.67;;
32810;SDS011;65470;47.324;8.548;2023-03-03T07:21:51;92.68;;;52.05;;
32810;SDS011;65470;47.324;8.548;2023-03-03T07:24:20;91.95;;;52.08;;
32810;SDS011;65470;47.324;8.548;2023-03-03T07:26:53;87.13;;;50.33;;
32810;SDS011;65470;47.324;8.548;2023-03-03T07:29:46;91.00;;;50.85;;
32810;SDS011;65470;47.324;8.548;2023-03-03T07:32:24;84.82;;;48.30;;
32810;SDS011;65470;47.324;8.548;2023-03-03T07:35:03;83.00;;;50.03;;
32810;SDS011;65470;47.324;8.548;2023-03-03T07:37:50;87.43;;;49.92;;
32810;SDS011;65470;47.324;8.548;2023-03-03T07:46:29;88.47;;;51.53;;
32810;SDS011;65470;47.324;8.548;2023-03-03T07:49:20;89.88;;;51.42;;
32810;SDS011;65470;47.324;8.548;2023-03-03T07:51:50;87.68;;;50.50;;
32810;SDS011;65470;47.324;8.548;2023-03-03T07:59:34;86.93;;;50.38;;
32810;SDS011;65470;47.324;8.548;2023-03-03T08:02:02;84.55;;;48.80;;
32810;SDS011;65470;47.324;8.548;2023-03-03T08:04:41;94.80;;;51.72;;
32810;SDS011;65470;47.324;8.548;2023-03-03T08:07:15;87.60;;;49.50;;
32810;SDS011;65470;47.324;8.548;2023-03-03T08:14:55;86.53;;;52.00;;
32810;SDS011;65470;47.324;8.548;2023-03-03T08:17:34;86.00;;;50.83;;
32810;SDS011;65470;47.324;8.548;2023-03-03T08:20:09;83.68;;;50.40;;
32810;SDS011;65470;47.324;8.548;2023-03-03T08:23:08;80.38;;;48.42;;
32810;SDS011;65470;47.324;8.548;2023-03-03T08:25:33;80.18;;;49.63;;
32810;SDS011;65470;47.324;8.548;2023-03-03T08:28:00;79.60;;;49.13;;
32810;SDS011;65470;47.324;8.548;2023-03-03T08:30:26;82.50;;;49.40;;
32810;SDS011;65470;47.324;8.548;2023-03-03T08:32:51;82.60;;;49.78;;
32810;SDS011;65470;47.324;8.548;2023-03-03T08:35:17;83.53;;;49.92;;
32810;SDS011;65470;47.324;8.548;2023-03-03T08:37:43;87.82;;;49.75;;
32810;SDS011;65470;47.324;8.548;2023-03-03T08:40:08;82.93;;;49.72;;
32810;SDS011;65470;47.324;8.548;2023-03-03T08:42:34;82.20;;;52.10;;
32810;SDS011;65470;47.324;8.548;2023-03-03T08:45:00;83.28;;;49.72;;
32810;SDS011;65470;47.324;8.548;2023-03-03T08:47:26;84.38;;;52.72;;
32810;SDS011;65470;47.324;8.548;2023-03-03T08:49:51;79.38;;;48.50;;
32810;SDS011;65470;47.324;8.548;2023-03-03T08:52:18;86.15;;;49.70;;
32810;SDS011;65470;47.324;8.548;2023-03-03T08:54:44;78.72;;;49.28;;
32810;SDS011;65470;47.324;8.548;2023-03-03T08:57:09;80.78;;;47.15;;
32810;SDS011;65470;47.324;8.548;2023-03-03T08:59:35;93.28;;;51.90;;
32810;SDS011;65470;47.324;8.548;2023-03-03T09:02:03;86.97;;;49.65;;
32810;SDS011;65470;47.324;8.548;2023-03-03T09:04:29;85.30;;;49.08;;
32810;SDS011;65470;47.324;8.548;2023-03-03T09:06:55;81.70;;;48.30;;
32810;SDS011;65470;47.324;8.548;2023-03-03T09:09:20;78.55;;;49.47;;
32810;SDS011;65470;47.324;8.548;2023-03-03T09:11:46;76.80;;;47.28;;
32810;SDS011;65470;47.324;8.548;2023-03-03T09:14:13;78.65;;;46.90;;
32810;SDS011;65470;47.324;8.548;2023-03-03T09:16:52;80.40;;;50.67;;
32810;SDS011;65470;47.324;8.548;2023-03-03T09:19:27;82.68;;;49.35;;
32810;SDS011;65470;47.324;8.548;2023-03-03T09:22:01;82.97;;;48.08;;
32810;SDS011;65470;47.324;8.548;2023-03-03T09:24:42;76.60;;;47.55;;
32810;SDS011;65470;47.324;8.548;2023-03-03T09:29:54;78.78;;;47.38;;
32810;SDS011;65470;47.324;8.548;2023-03-03T09:32:30;87.22;;;49.85;;
32810;SDS011;65470;47.324;8.548;2023-03-03T09:34:59;81.90;;;49.03;;
32810;SDS011;65470;47.324;8.548;2023-03-03T09:37:45;78.07;;;47.25;;
32810;SDS011;65470;47.324;8.548;2023-03-03T09:43:12;81.35;;;50.65;;
32810;SDS011;65470;47.324;8.548;2023-03-03T09:48:51;79.90;;;48.47;;
32810;SDS011;65470;47.324;8.548;2023-03-03T09:57:04;78.97;;;47.55;;
32810;SDS011;65470;47.324;8.548;2023-03-03T09:59:49;86.35;;;49.55;;
32810;SDS011;65470;47.324;8.548;2023-03-03T10:02:30;85.75;;;50.65;;
32810;SDS011;65470;47.324;8.548;2023-03-03T10:21:04;78.45;;;48.40;;
32810;SDS011;65470;47.324;8.548;2023-03-03T10:26:41;77.85;;;50.53;;
32810;SDS011;65470;47.324;8.548;2023-03-03T10:45:44;75.13;;;48.55;;
32810;SDS011;65470;47.324;8.548;2023-03-03T11:08:27;73.93;;;49.88;;
32810;SDS011;65470;47.324;8.548;2023-03-03T11:13:55;76.65;;;48.50;;
32810;SDS011;65470;47.324;8.548;2023-03-03T11:19:38;76.93;;;48.85;;
32810;SDS011;65470;47.324;8.548;2023-03-03T11:22:12;78.03;;;49.55;;
32810;SDS011;65470;47.324;8.548;2023-03-03T11:37:44;75.22;;;50.63;;
32810;SDS011;65470;47.324;8.548;2023-03-03T11:40:26;72.47;;;47.80;;
32810;SDS011;65470;47.324;8.548;2023-03-03T11:46:08;76.32;;;50.25;;
32810;SDS011;65470;47.324;8.548;2023-03-03T11:54:02;71.25;;;49.83;;
32810;SDS011;65470;47.324;8.548;2023-03-03T11:56:34;72.85;;;48.33;;
32810;SDS011;65470;47.324;8.548;2023-03-03T12:04:35;74.15;;;49.30;;
32810;SDS011;65470;47.324;8.548;2023-03-03T12:12:24;73.22;;;49.50;;
32810;SDS011;65470;47.324;8.548;2023-03-03T12:17:29;70.35;;;49.92;;
32810;SDS011;65470;47.324;8.548;2023-03-03T12:25:27;67.85;;;45.83;;
32810;SDS011;65470;47.324;8.548;2023-03-03T12:41:55;61.85;;;46.53;;
32810;SDS011;65470;47.324;8.548;2023-03-03T12:46:53;62.88;;;46.42;;
32810;SDS011;65470;47.324;8.548;2023-03-03T12:49:52;59.78;;;44.90;;
32810;SDS011;65470;47.324;8.548;2023-03-03T12:52:42;65.10;;;48.47;;
32810;SDS011;65470;47.324;8.548;2023-03-03T12:55:28;60.20;;;46.17;;
32810;SDS011;65470;47.324;8.548;2023-03-03T12:58:05;55.80;;;43.55;;
32810;SDS011;65470;47.324;8.548;2023-03-03T13:08:47;57.28;;;45.15;;
32810;SDS011;65470;47.324;8.548;2023-03-03T13:14:14;62.47;;;48.10;;
32810;SDS011;65470;47.324;8.548;2023-03-03T13:16:43;59.17;;;44.67;;
32810;SDS011;65470;47.324;8.548;2023-03-03T13:19:19;66.10;;;46.45;;
32810;SDS011;65470;47.324;8.548;2023-03-03T13:22:00;63.13;;;46.85;;
32810;SDS011;65470;47.324;8.548;2023-03-03T13:29:42;64.55;;;47.53;;
32810;SDS011;65470;47.324;8.548;2023-03-03T13:32:28;57.55;;;44.58;;
32810;SDS011;65470;47.324;8.548;2023-03-03T13:37:55;53.42;;;44.17;;
32810;SDS011;65470;47.324;8.548;2023-03-03T13:40:25;65.72;;;44.08;;
32810;SDS011;65470;47.324;8.548;2023-03-03T13:43:02;50.75;;;41.90;;
32810;SDS011;65470;47.324;8.548;2023-03-03T13:50:41;56.90;;;42.55;;
32810;SDS011;65470;47.324;8.548;2023-03-03T13:55:56;50.95;;;41.85;;
32810;SDS011;65470;47.324;8.548;2023-03-03T14:01:08;57.03;;;43.20;;
32810;SDS011;65470;47.324;8.548;2023-03-03T14:06:26;55.80;;;47.28;;
32810;SDS011;65470;47.324;8.548;2023-03-03T14:11:53;51.92;;;42.28;;
32810;SDS011;65470;47.324;8.548;2023-03-03T14:19:34;53.38;;;44.40;;
32810;SDS011;65470;47.324;8.548;2023-03-03T14:24:55;57.45;;;44.75;;
32810;SDS011;65470;47.324;8.548;2023-03-03T14:27:25;56.05;;;43.92;;
32810;SDS011;65470;47.324;8.548;2023-03-03T14:29:57;57.17;;;44.75;;
32810;SDS011;65470;47.324;8.548;2023-03-03T14:32:23;63.55;;;47.15;;
32810;SDS011;65470;47.324;8.548;2023-03-03T14:34:57;58.70;;;44.58;;
32810;SDS011;65470;47.324;8.548;2023-03-03T14:37:41;60.92;;;46.08;;
32810;SDS011;65470;47.324;8.548;2023-03-03T14:40:16;57.05;;;43.15;;
32810;SDS011;65470;47.324;8.548;2023-03-03T14:42:52;61.15;;;43.60;;
32810;SDS011;65470;47.324;8.548;2023-03-03T14:45:22;63.88;;;48.38;;
32810;SDS011;65470;47.324;8.548;2023-03-03T14:47:58;62.35;;;47.08;;
32810;SDS011;65470;47.324;8.548;2023-03-03T14:53:38;60.03;;;44.58;;
32810;SDS011;65470;47.324;8.548;2023-03-03T14:56:15;62.97;;;46.50;;
32810;SDS011;65470;47.324;8.548;2023-03-03T14:58:48;63.45;;;46.67;;
32810;SDS011;65470;47.324;8.548;2023-03-03T15:09:36;64.32;;;47.17;;
32810;SDS011;65470;47.324;8.548;2023-03-03T15:12:21;65.85;;;46.53;;
32810;SDS011;65470;47.324;8.548;2023-03-03T15:17:33;60.85;;;44.53;;
32810;SDS011;65470;47.324;8.548;2023-03-03T15:22:50;72.85;;;45.67;;
32810;SDS011;65470;47.324;8.548;2023-03-03T15:25:25;72.72;;;44.75;;
32810;SDS011;65470;47.324;8.548;2023-03-03T15:28:05;67.78;;;46.33;;
32810;SDS011;65470;47.324;8.548;2023-03-03T15:33:18;67.07;;;45.25;;
32810;SDS011;65470;47.324;8.548;2023-03-03T15:35:47;70.93;;;46.88;;
32810;SDS011;65470;47.324;8.548;2023-03-03T15:38:21;70.05;;;45.08;;
32810;SDS011;65470;47.324;8.548;2023-03-03T15:41:24;69.55;;;47.22;;
32810;SDS011;65470;47.324;8.548;2023-03-03T15:44:11;75.00;;;46.47;;
32810;SDS011;65470;47.324;8.548;2023-03-03T15:46:53;74.50;;;45.72;;
32810;SDS011;65470;47.324;8.548;2023-03-03T15:49:49;70.25;;;46.38;;
32810;SDS011;65470;47.324;8.548;2023-03-03T15:52:34;68.43;;;46.08;;
32810;SDS011;65470;47.324;8.548;2023-03-03T15:55:23;67.55;;;45.58;;
32810;SDS011;65470;47.324;8.548;2023-03-03T16:06:00;69.35;;;46.20;;
32810;SDS011;65470;47.324;8.548;2023-03-03T16:20:24;76.93;;;47.40;;
32810;SDS011;65470;47.324;8.548;2023-03-03T16:23:35;68.78;;;45.97;;
32810;SDS011;65470;47.324;8.548;2023-03-03T16:42:34;75.43;;;48.45;;
32810;SDS011;65470;47.324;8.548;2023-03-03T17:15:41;75.95;;;47.95;;
32810;SDS011;65470;47.324;8.548;2023-03-03T17:24:43;80.80;;;48.88;;
32810;SDS011;65470;47.324;8.548;2023-03-03T17:27:13;73.50;;;46.17;;
32810;SDS011;65470;47.324;8.548;2023-03-03T17:40:47;81.55;;;48.45;;
32810;SDS011;65470;47.324;8.548;2023-03-03T17:43:25;75.57;;;48.78;;
32810;SDS011;65470;47.324;8.548;2023-03-03T17:45:58;78.35;;;49.60;;
32810;SDS011;65470;47.324;8.548;2023-03-03T18:09:57;75.97;;;47.35;;
32810;SDS011;65470;47.324;8.548;2023-03-03T18:18:36;72.22;;;47.45;;
32810;SDS011;65470;47.324;8.548;2023-03-03T18:21:21;77.05;;;47.88;;
32810;SDS011;65470;47.324;8.548;2023-03-03T18:27:11;76.80;;;48.53;;
32810;SDS011;65470;47.324;8.548;2023-03-03T18:37:49;75.82;;;47.10;;
32810;SDS011;65470;47.324;8.548;2023-03-03T18:40:25;74.57;;;48.17;;
32810;SDS011;65470;47.324;8.548;2023-03-03T18:42:54;72.22;;;48.15;;
32810;SDS011;65470;47.324;8.548;2023-03-03T18:50:37;74.88;;;47.92;;
32810;SDS011;65470;47.324;8.548;2023-03-03T18:53:24;77.40;;;47.28;;
32810;SDS011;65470;47.324;8.548;2023-03-03T18:55:53;80.07;;;48.80;;
32810;SDS011;65470;47.324;8.548;2023-03-03T19:06:27;78.05;;;47.33;;
32810;SDS011;65470;47.324;8.548;2023-03-03T19:08:59;75.75;;;48.63;;
32810;SDS011;65470;47.324;8.548;2023-03-03T19:14:17;83.85;;;49.67;;
32810;SDS011;65470;47.324;8.548;2023-03-03T19:16:50;81.00;;;48.83;;
32810;SDS011;65470;47.324;8.548;2023-03-03T19:19:17;76.72;;;47.50;;
32810;SDS011;65470;47.324;8.548;2023-03-03T19:22:13;73.45;;;49.47;;
32810;SDS011;65470;47.324;8.548;2023-03-03T19:27:39;77.43;;;49.05;;
32810;SDS011;65470;47.324;8.548;2023-03-03T19:30:20;83.68;;;51.17;;
32810;SDS011;65470;47.324;8.548;2023-03-03T19:53:29;82.40;;;50.45;;
32810;SDS011;65470;47.324;8.548;2023-03-03T19:58:56;82.88;;;51.97;;
32810;SDS011;65470;47.324;8.548;2023-03-03T20:12:45;83.10;;;51.30;;
32810;SDS011;65470;47.324;8.548;2023-03-03T20:24:18;85.50;;;51.85;;
32810;SDS011;65470;47.324;8.548;2023-03-03T20:26:55;79.70;;;49.92;;
32810;SDS011;65470;47.324;8.548;2023-03-03T20:32:56;84.90;;;51.00;;
32810;SDS011;65470;47.324;8.548;2023-03-03T20:49:25;80.93;;;49.28;;
32810;SDS011;65470;47.324;8.548;2023-03-03T20:52:29;78.40;;;51.67;;
32810;SDS011;65470;47.324;8.548;2023-03-03T20:58:08;75.20;;;49.88;;
32810;SDS011;65470;47.324;8.548;2023-03-03T21:06:05;86.45;;;49.08;;
32810;SDS011;65470;47.324;8.548;2023-03-03T21:11:06;79.40;;;48.70;;
32810;SDS011;65470;47.324;8.548;2023-03-03T21:13:33;78.78;;;50.60;;
32810;SDS011;65470;47.324;8.548;2023-03-03T21:16:43;79.15;;;50.58;;
32810;SDS011;65470;47.324;8.548;2023-03-03T21:21:39;76.13;;;49.65;;
32810;SDS011;65470;47.324;8.548;2023-03-03T21:24:06;80.60;;;50.70;;
32810;SDS011;65470;47.324;8.548;2023-03-03T21:26:50;80.43;;;52.28;;
32810;SDS011;65470;47.324;8.548;2023-03-03T21:32:00;81.63;;;52.00;;
32810;SDS011;65470;47.324;8.548;2023-03-03T21:34:39;84.60;;;54.38;;
32810;SDS011;65470;47.324;8.548;2023-03-03T21:37:10;82.63;;;53.05;;
32810;SDS011;65470;47.324;8.548;2023-03-03T21:39:40;82.45;;;52.40;;
32810;SDS011;65470;47.324;8.548;2023-03-03T21:44:47;79.20;;;52.42;;
32810;SDS011;65470;47.324;8.548;2023-03-03T21:47:15;81.82;;;52.83;;
32810;SDS011;65470;47.324;8.548;2023-03-03T21:49:45;82.32;;;51.85;;
32810;SDS011;65470;47.324;8.548;2023-03-03T21:52:13;80.05;;;50.45;;
32810;SDS011;65470;47.324;8.548;2023-03-03T21:54:40;84.07;;;52.10;;
32810;SDS011;65470;47.324;8.548;2023-03-03T21:57:10;87.00;;;52.67;;
32810;SDS011;65470;47.324;8.548;2023-03-03T21:59:36;84.70;;;52.25;;
32810;SDS011;65470;47.324;8.548;2023-03-03T22:02:02;77.93;;;50.63;;
32810;SDS011;65470;47.324;8.548;2023-03-03T22:04:28;86.93;;;51.80;;
32810;SDS011;65470;47.324;8.548;2023-03-03T22:06:54;85.80;;;55.03;;
32810;SDS011;65470;47.324;8.548;2023-03-03T22:09:20;78.70;;;51.97;;
32810;SDS011;65470;47.324;8.548;2023-03-03T22:11:46;77.75;;;50.08;;
32810;SDS011;65470;47.324;8.548;2023-03-03T22:14:12;78.75;;;51.53;;
32810;SDS011;65470;47.324;8.548;2023-03-03T22:16:38;81.70;;;51.72;;
32810;SDS011;65470;47.324;8.548;2023-03-03T22:19:03;82.97;;;53.83;;